Time;durP1;ratioP1;P1;durP2;ratioP2;P2;SDS_P1;SDS_P2;PMS_P1;PMS_P2;Temp;Humidity;BMP_temperature;BMP_pressure;BME280_temperature;BME280_humidity;BME280_pressure;Samples;Min_cycle;Max_cycle;Signal;HPM_P1;HPM_P2
2022/03/12 00:00:31;;;;;;;7.38;5.30;;;;;;;10.39;23.88;100225.41;5038930;28;20064;-82
2022/03/12 00:02:58;;;;;;;7.85;5.45;;;;;;;10.46;23.69;100242.50;5038530;28;20061;-82
2022/03/12 00:05:29;;;;;;;8.50;5.68;;;;;;;10.32;24.10;100212.75;5037561;28;20402;-82
2022/03/12 00:07:58;;;;;;;7.38;5.13;;;;;;;10.43;23.76;100230.00;5039651;28;20057;-82
2022/03/12 00:10:26;;;;;;;8.07;5.63;;;;;;;10.41;23.90;100225.91;5036701;28;20053;-83
2022/03/12 00:12:54;;;;;;;7.28;5.10;;;;;;;10.31;24.01;100232.56;5031816;28;20135;-83
2022/03/12 00:15:22;;;;;;;6.32;5.25;;;;;;;10.46;24.15;100234.97;5024070;28;20057;-82
2022/03/12 00:17:49;;;;;;;6.72;4.80;;;;;;;10.38;24.22;100230.16;5030111;28;20072;-82
2022/03/12 00:20:21;;;;;;;7.13;5.38;;;;;;;10.26;24.39;100222.34;5020747;28;20509;-83
2022/03/12 00:22:51;;;;;;;7.07;5.07;;;;;;;10.26;24.48;100225.13;5018498;28;20058;-83
2022/03/12 00:25:22;;;;;;;8.15;5.35;;;;;;;10.27;24.32;100223.19;5031770;28;20065;-83
2022/03/12 00:27:50;;;;;;;8.23;5.25;;;;;;;10.16;24.65;100229.03;5031116;28;20050;-82
2022/03/12 00:30:21;;;;;;;9.05;5.43;;;;;;;10.14;24.70;100220.19;5028020;28;20069;-83
2022/03/12 00:32:49;;;;;;;8.15;5.75;;;;;;;10.13;24.24;100229.66;5039007;28;20058;-82
2022/03/12 00:35:17;;;;;;;7.75;5.28;;;;;;;10.28;24.36;100235.97;5038458;28;20068;-82
2022/03/12 00:37:48;;;;;;;7.43;5.35;;;;;;;10.28;24.45;100222.03;5038940;28;20049;-83
2022/03/12 00:40:21;;;;;;;7.35;5.28;;;;;;;10.25;24.59;100233.84;5039094;28;20045;-83
2022/03/12 00:42:48;;;;;;;6.85;5.35;;;;;;;10.35;24.15;100230.78;5038854;28;20053;-83
2022/03/12 00:45:16;;;;;;;6.95;5.57;;;;;;;10.35;24.40;100241.91;5038283;28;20045;-82
2022/03/12 00:47:43;;;;;;;7.18;4.97;;;;;;;10.17;24.57;100227.06;5038298;28;20049;-83
2022/03/12 00:50:11;;;;;;;7.90;5.68;;;;;;;10.15;24.28;100227.38;5022206;28;20046;-83
2022/03/12 00:52:39;;;;;;;8.32;5.20;;;;;;;10.15;24.65;100230.16;5037502;28;20068;-83
2022/03/12 00:55:07;;;;;;;6.18;5.00;;;;;;;10.12;24.35;100236.38;5038550;28;20065;-83
2022/03/12 00:57:38;;;;;;;6.45;5.07;;;;;;;10.04;24.59;100226.00;5036471;28;20053;-82
2022/03/12 01:00:13;;;;;;;7.95;5.53;;;;;;;10.06;24.45;100225.69;5024378;28;20041;-82
2022/03/12 01:02:41;;;;;;;11.82;5.35;;;;;;;10.01;24.39;100225.81;5022767;28;20049;-82
2022/03/12 01:05:09;;;;;;;6.53;5.13;;;;;;;10.04;24.82;100217.66;5030236;28;20053;-82
2022/03/12 01:07:36;;;;;;;7.80;5.47;;;;;;;9.96;24.60;100204.50;5022658;28;20061;-82
2022/03/12 01:10:04;;;;;;;8.60;5.78;;;;;;;9.91;25.01;100213.81;5035698;28;20053;-82
2022/03/12 01:12:31;;;;;;;8.18;5.40;;;;;;;9.95;24.44;100216.75;5018187;28;20053;-83
2022/03/12 01:15:00;;;;;;;9.68;4.95;;;;;;;10.07;24.49;100218.97;5036999;28;20053;-82
2022/03/12 01:17:27;;;;;;;6.82;5.25;;;;;;;9.97;24.65;100217.25;5036071;28;20060;-83
2022/03/12 01:19:55;;;;;;;8.30;5.63;;;;;;;9.92;24.08;100228.53;5035215;28;20052;-83
2022/03/12 01:22:24;;;;;;;11.07;6.00;;;;;;;9.98;24.11;100226.44;5036468;28;20125;-84
2022/03/12 01:24:51;;;;;;;7.33;5.63;;;;;;;10.03;24.46;100210.44;5024526;28;20387;-83
2022/03/12 01:27:18;;;;;;;6.72;5.10;;;;;;;10.05;24.60;100224.03;5033682;28;20479;-82
2022/03/12 01:29:46;;;;;;;8.77;5.72;;;;;;;10.03;24.70;100215.19;5022939;28;20049;-82
2022/03/12 01:32:14;;;;;;;7.82;5.22;;;;;;;10.01;24.79;100220.22;5036199;28;20046;-83
2022/03/12 01:34:42;;;;;;;6.20;4.72;;;;;;;10.01;24.78;100218.28;5036891;28;20053;-83
2022/03/12 01:37:09;;;;;;;6.35;4.85;;;;;;;9.99;24.44;100220.53;5018681;28;20075;-82
2022/03/12 01:39:37;;;;;;;7.30;5.38;;;;;;;10.05;24.68;100224.84;5034336;28;20050;-83
2022/03/12 01:42:09;;;;;;;7.22;4.95;;;;;;;10.01;24.78;100223.00;5026809;28;20057;-82
2022/03/12 01:44:36;;;;;;;7.00;5.20;;;;;;;10.10;24.63;100221.09;5017043;28;20427;-83
2022/03/12 01:47:07;;;;;;;7.03;5.30;;;;;;;10.20;24.35;100229.19;5029851;28;20052;-83
2022/03/12 01:49:36;;;;;;;9.73;5.32;;;;;;;10.09;24.41;100238.94;5036163;28;20486;-83
2022/03/12 01:52:05;;;;;;;;;;;;;;;10.02;24.68;100236.63;5036511;28;20433;-82
2022/03/12 01:54:33;;;;;;;7.38;5.10;;;;;;;10.05;24.80;100238.75;5030856;28;19928;-83
2022/03/12 01:57:00;;;;;;;7.15;5.28;;;;;;;10.00;24.60;100240.88;4990731;28;20051;-83
2022/03/12 01:59:28;;;;;;;6.78;5.65;;;;;;;9.98;24.96;100234.78;4978382;28;20051;-83
2022/03/12 02:01:57;;;;;;;8.63;5.20;;;;;;;10.04;24.86;100253.00;4989127;28;20046;-83
2022/03/12 02:04:25;;;;;;;8.10;4.97;;;;;;;9.87;25.01;100248.09;4992416;28;20046;-82
2022/03/12 02:06:54;;;;;;;7.53;5.90;;;;;;;9.89;24.86;100241.13;4985558;28;20408;-83
2022/03/12 02:09:22;;;;;;;6.85;5.25;;;;;;;9.88;25.11;100245.00;4992673;28;20046;-84
2022/03/12 02:11:51;;;;;;;9.15;5.63;;;;;;;9.93;25.34;100232.94;4996826;28;20045;-83
2022/03/12 02:14:20;;;;;;;7.77;5.23;;;;;;;9.92;25.17;100254.38;4997617;28;20058;-83
2022/03/12 02:16:51;;;;;;;8.50;5.57;;;;;;;9.90;25.16;100244.72;4994596;28;20049;-83
2022/03/12 02:19:19;;;;;;;8.68;5.78;;;;;;;9.98;25.11;100230.03;4978888;28;20055;-83
2022/03/12 02:21:52;;;;;;;9.80;5.55;;;;;;;9.92;25.34;100236.88;4996302;28;20050;-83
2022/03/12 02:24:23;;;;;;;6.68;5.28;;;;;;;9.90;25.40;100230.81;5000886;28;20057;-84
2022/03/12 02:26:51;;;;;;;7.93;6.10;;;;;;;9.76;25.48;100239.19;5000052;28;20054;-83
2022/03/12 02:29:22;;;;;;;7.60;5.53;;;;;;;9.85;25.68;100247.59;4991026;28;20050;-83
2022/03/12 02:31:52;;;;;;;7.53;5.60;;;;;;;9.69;25.91;100242.41;4984377;28;20055;-83
2022/03/12 02:34:23;;;;;;;6.85;5.63;;;;;;;9.78;25.75;100236.09;4986658;28;20065;-82
2022/03/12 02:36:52;;;;;;;7.93;5.47;;;;;;;9.62;25.96;100263.47;4994718;28;20046;-84
2022/03/12 02:39:22;;;;;;;8.27;5.28;;;;;;;9.90;26.18;100247.50;4978171;28;20055;-82
2022/03/12 02:41:50;;;;;;;7.35;5.50;;;;;;;9.86;26.07;100249.25;4994996;28;20419;-84
2022/03/12 02:44:20;;;;;;;7.68;5.22;;;;;;;9.91;25.74;100252.75;4996275;28;20069;-82
2022/03/12 02:47:14;;;;;;;7.72;5.85;;;;;;;9.79;26.14;100255.25;4988908;28;20483;-82
2022/03/12 02:49:45;;;;;;;8.93;5.72;;;;;;;9.91;26.10;100260.25;4993685;28;20054;-83
2022/03/12 02:52:13;;;;;;;9.00;5.68;;;;;;;10.04;26.25;100266.94;4977775;28;20054;-83
2022/03/12 02:54:43;;;;;;;8.75;5.95;;;;;;;9.96;26.14;100263.75;4992358;28;20089;-83
2022/03/12 02:57:11;;;;;;;10.27;5.75;;;;;;;9.95;26.20;100273.25;5036184;28;20053;-83
2022/03/12 02:59:38;;;;;;;8.70;6.07;;;;;;;10.01;26.27;100260.00;5035805;28;20053;-83
2022/03/12 03:02:09;;;;;;;8.25;5.55;;;;;;;9.91;26.28;100265.81;5036496;28;20049;-83
2022/03/12 03:04:37;;;;;;;8.02;6.13;;;;;;;9.86;26.52;100263.97;5035846;28;20046;-84
2022/03/12 03:07:06;;;;;;;7.93;6.07;;;;;;;10.00;26.73;100271.47;5028643;28;20061;-84
2022/03/12 03:09:34;;;;;;;8.80;6.57;;;;;;;9.91;26.73;100274.16;5038706;28;20050;-83
2022/03/12 03:12:08;;;;;;;6.87;5.67;;;;;;;10.02;26.45;100292.28;5025451;28;20050;-83
2022/03/12 03:14:43;;;;;;;8.45;5.80;;;;;;;9.95;26.80;100280.75;5020257;28;20061;-83
2022/03/12 03:17:11;;;;;;;7.75;5.80;;;;;;;10.06;26.87;100287.72;5026739;28;20050;-82
2022/03/12 03:19:39;;;;;;;8.55;6.30;;;;;;;10.14;26.69;100286.13;5025742;28;20058;-83
2022/03/12 03:22:07;;;;;;;7.88;5.75;;;;;;;10.15;26.67;100287.78;5030003;28;20076;-82
2022/03/12 03:24:35;;;;;;;8.63;6.20;;;;;;;9.99;26.99;100292.06;5026619;28;20046;-82
2022/03/12 03:27:04;;;;;;;8.95;6.03;;;;;;;10.11;26.85;100303.47;5039758;28;20053;-82
2022/03/12 03:29:33;;;;;;;9.48;5.88;;;;;;;10.13;27.17;100304.78;5027625;28;20052;-83
2022/03/12 03:32:01;;;;;;;9.25;6.28;;;;;;;9.99;27.40;100303.19;5038611;28;20053;-83
2022/03/12 03:34:31;;;;;;;9.38;6.25;;;;;;;9.94;27.58;100310.53;5039279;28;20052;-83
2022/03/12 03:36:58;;;;;;;8.85;6.15;;;;;;;10.03;27.35;100315.34;5040088;28;20383;-83
2022/03/12 03:39:26;;;;;;;8.18;5.95;;;;;;;10.09;27.44;100309.34;5039364;28;20053;-83
2022/03/12 03:41:53;;;;;;;8.55;5.75;;;;;;;10.04;27.97;100306.69;5037203;28;20045;-83
2022/03/12 03:44:28;;;;;;;9.48;6.22;;;;;;;10.08;28.13;100304.94;5039800;28;20045;-83
2022/03/12 03:46:55;;;;;;;8.48;6.45;;;;;;;10.13;28.27;100302.00;5037863;28;20053;-82
2022/03/12 03:49:24;;;;;;;9.65;6.70;;;;;;;10.04;28.66;100312.25;5037644;28;20060;-83
2022/03/12 03:51:52;;;;;;;10.73;6.45;;;;;;;10.05;29.12;100325.03;5032413;28;20057;-84
2022/03/12 03:54:20;;;;;;;10.73;6.85;;;;;;;10.07;28.90;100311.63;5021741;28;20050;-84
2022/03/12 03:56:47;;;;;;;8.50;6.03;;;;;;;9.97;29.36;100328.56;5038805;28;20065;-83
2022/03/12 03:59:14;;;;;;;8.52;6.60;;;;;;;9.99;29.45;100319.91;5022170;28;20050;-83
2022/03/12 04:01:45;;;;;;;10.00;6.55;;;;;;;9.83;30.02;100316.66;5038920;28;20061;-83
2022/03/12 04:04:13;;;;;;;9.27;6.38;;;;;;;9.87;30.03;100314.88;5037912;28;20068;-83
2022/03/12 04:06:43;;;;;;;9.13;7.70;;;;;;;9.90;29.81;100305.91;5033666;28;20092;-83
2022/03/12 04:09:11;;;;;;;9.27;6.80;;;;;;;9.80;30.41;100320.06;5029981;28;20062;-83
2022/03/12 04:11:39;;;;;;;7.60;6.53;;;;;;;9.87;30.37;100323.22;5037285;28;20054;-83
2022/03/12 04:14:10;;;;;;;8.98;6.57;;;;;;;9.82;30.64;100323.34;5037406;28;20049;-84
2022/03/12 04:16:38;;;;;;;8.18;6.57;;;;;;;9.74;30.84;100330.47;5030784;28;20057;-83
2022/03/12 04:19:08;;;;;;;8.95;6.85;;;;;;;9.82;30.85;100337.25;5031262;28;20049;-83
2022/03/12 04:21:36;;;;;;;10.60;7.35;;;;;;;9.81;31.39;100332.84;5036434;28;20053;-84
2022/03/12 04:24:05;;;;;;;10.73;6.68;;;;;;;9.74;31.46;100336.88;5025937;28;20405;-84
2022/03/12 04:26:35;;;;;;;8.63;6.22;;;;;;;9.88;31.19;100344.34;5038659;28;20509;-83
2022/03/12 04:29:03;;;;;;;10.32;6.65;;;;;;;9.77;31.39;100340.97;5019048;28;20057;-83
2022/03/12 04:31:31;;;;;;;8.63;6.65;;;;;;;9.85;31.98;100336.63;5031140;28;20046;-83
2022/03/12 04:33:59;;;;;;;7.82;6.32;;;;;;;9.86;32.03;100338.28;5030189;28;20497;-83
2022/03/12 04:36:28;;;;;;;10.77;7.32;;;;;;;9.88;32.10;100341.56;5038795;28;20441;-83
2022/03/12 04:38:55;;;;;;;9.57;7.22;;;;;;;9.75;32.45;100338.50;5032872;28;20045;-84
2022/03/12 04:41:23;;;;;;;10.40;7.43;;;;;;;9.68;32.75;100348.41;5037363;28;20053;-84
2022/03/12 04:43:51;;;;;;;10.35;6.57;;;;;;;9.72;32.81;100341.94;5032979;28;20057;-83
2022/03/12 04:46:19;;;;;;;9.32;7.05;;;;;;;9.76;32.79;100353.22;5031582;28;20049;-83
2022/03/12 04:48:46;;;;;;;10.30;7.20;;;;;;;9.64;32.69;100353.78;5038394;28;20056;-83
2022/03/12 04:51:16;;;;;;;8.23;6.78;;;;;;;9.67;33.08;100347.59;5038514;28;20049;-83
2022/03/12 04:53:45;;;;;;;9.70;7.03;;;;;;;9.70;32.71;100343.34;5030188;28;20056;-82
2022/03/12 04:56:13;;;;;;;9.55;7.22;;;;;;;9.67;33.69;100355.09;5019059;28;20069;-82
2022/03/12 04:58:40;;;;;;;9.80;6.88;;;;;;;9.60;33.59;100349.16;5038873;28;20049;-83
2022/03/12 05:01:08;;;;;;;10.65;6.80;;;;;;;9.56;33.13;100354.50;5038479;28;20053;-83
2022/03/12 05:03:36;;;;;;;10.85;7.55;;;;;;;9.45;33.87;100345.56;5037408;28;20508;-83
2022/03/12 05:06:04;;;;;;;9.32;7.10;;;;;;;9.51;33.51;100357.38;5027877;28;20425;-84
2022/03/12 05:08:35;;;;;;;10.13;7.13;;;;;;;9.51;33.47;100343.47;5018141;28;20061;-83
2022/03/12 05:11:04;;;;;;;10.07;6.72;;;;;;;9.64;33.52;100342.66;5036034;28;20058;-83
2022/03/12 05:13:32;;;;;;;9.75;6.97;;;;;;;9.53;33.81;100357.91;5037899;28;20050;-82
2022/03/12 05:16:03;;;;;;;9.32;6.68;;;;;;;9.47;33.85;100353.56;5037822;28;20474;-84
2022/03/12 05:18:31;;;;;;;9.60;7.00;;;;;;;9.55;33.86;100352.84;5035201;28;20045;-84
2022/03/12 05:20:59;;;;;;;9.02;7.07;;;;;;;9.67;34.04;100355.09;5026287;28;20061;-84
2022/03/12 05:23:27;;;;;;;10.35;7.45;;;;;;;9.79;34.26;100357.38;5018686;28;20058;-82
2022/03/12 05:25:55;;;;;;;9.77;6.75;;;;;;;9.73;34.55;100363.03;5026716;28;20057;-81
2022/03/12 05:28:29;;;;;;;9.27;6.93;;;;;;;9.74;35.51;100359.13;5037787;28;20053;-81
2022/03/12 05:30:58;;;;;;;10.70;6.80;;;;;;;9.60;35.90;100369.44;5037364;28;20053;-82
2022/03/12 05:33:27;;;;;;;8.68;7.13;;;;;;;9.65;35.88;100366.53;5032857;28;20498;-82
2022/03/12 05:35:55;;;;;;;15.13;7.67;;;;;;;9.76;35.61;100364.34;5035598;28;20057;-82
2022/03/12 05:38:23;;;;;;;10.35;7.07;;;;;;;9.49;36.40;100376.31;5037254;28;20046;-82
2022/03/12 05:40:50;;;;;;;11.55;7.38;;;;;;;9.67;36.40;100371.78;5037317;28;20050;-83
2022/03/12 05:43:19;;;;;;;11.00;6.88;;;;;;;9.68;36.92;100382.63;5037061;28;20144;-82
2022/03/12 05:45:51;;;;;;;9.60;7.50;;;;;;;9.65;37.01;100377.66;5036333;28;20058;-84
2022/03/12 05:48:23;;;;;;;9.27;7.25;;;;;;;9.69;37.27;100383.44;5037173;28;20460;-83
2022/03/12 05:50:50;;;;;;;8.23;6.95;;;;;;;9.61;37.47;100381.38;5036930;28;20049;-83
2022/03/12 05:53:19;;;;;;;9.90;7.10;;;;;;;9.78;37.16;100380.75;5037291;28;20057;-83
2022/03/12 05:55:47;;;;;;;10.63;7.00;;;;;;;9.72;37.14;100371.69;5036915;28;20049;-82
2022/03/12 05:58:17;;;;;;;9.48;6.30;;;;;;;9.57;38.04;100385.91;5037237;28;20061;-82
2022/03/12 06:00:45;;;;;;;8.32;6.40;;;;;;;9.53;37.47;100380.13;5035616;28;20068;-83
2022/03/12 06:03:14;;;;;;;9.43;6.20;;;;;;;9.52;36.54;100376.53;5032851;28;20060;-83
2022/03/12 06:05:43;;;;;;;9.77;6.77;;;;;;;9.43;36.61;100394.25;5037254;28;20470;-84
2022/03/12 06:08:21;;;;;;;9.07;6.82;;;;;;;9.35;36.94;100385.50;5037214;28;20401;-83
2022/03/12 06:10:51;;;;;;;8.80;6.68;;;;;;;9.26;37.31;100384.59;5019859;28;20050;-84
2022/03/12 06:13:18;;;;;;;9.07;6.50;;;;;;;9.17;38.05;100389.19;5029381;28;20520;-83
2022/03/12 06:15:58;;;;;;;8.43;5.90;;;;;;;9.11;38.32;100395.97;5037063;28;20056;-82
2022/03/12 06:18:27;;;;;;;9.40;6.15;;;;;;;9.17;38.50;100389.19;5035475;28;20049;-83
2022/03/12 06:20:55;;;;;;;6.95;5.70;;;;;;;9.13;37.99;100396.50;5036309;28;20054;-84
2022/03/12 06:23:22;;;;;;;9.15;6.53;;;;;;;9.17;38.70;100405.88;5036770;28;20050;-84
2022/03/12 06:25:51;;;;;;;8.02;5.95;;;;;;;9.29;38.84;100414.53;5036576;28;20053;-83
2022/03/12 06:28:19;;;;;;;11.52;6.75;;;;;;;9.22;39.25;100416.91;5032734;28;20057;-82
2022/03/12 06:30:47;;;;;;;9.68;6.85;;;;;;;9.37;39.04;100415.78;5017500;28;20065;-82
2022/03/12 06:33:19;;;;;;;9.93;6.38;;;;;;;9.47;39.30;100417.53;5019401;28;20058;-85
2022/03/12 06:35:47;;;;;;;7.68;5.97;;;;;;;9.52;39.48;100417.44;5037158;28;20048;-82
2022/03/12 06:38:16;;;;;;;9.20;6.25;;;;;;;9.64;39.26;100425.25;5031622;28;20050;-85
2022/03/12 06:40:44;;;;;;;8.95;6.28;;;;;;;9.84;38.73;100433.16;5017314;28;20064;-85
2022/03/12 06:43:18;;;;;;;8.35;5.95;;;;;;;10.08;38.32;100427.38;5029343;28;20049;-84
2022/03/12 06:45:46;;;;;;;7.43;5.90;;;;;;;10.65;37.62;100440.03;5032489;28;20054;-84
2022/03/12 06:48:14;;;;;;;7.18;5.60;;;;;;;10.83;37.34;100425.06;5038149;28;20053;-83
2022/03/12 06:50:42;;;;;;;8.30;5.80;;;;;;;10.88;37.67;100429.72;5039879;28;20045;-84
2022/03/12 06:53:11;;;;;;;8.68;6.03;;;;;;;10.96;37.46;100421.41;5038509;28;20053;-83
2022/03/12 06:55:39;;;;;;;7.88;5.75;;;;;;;11.49;36.85;100425.28;5039736;28;20053;-83
2022/03/12 06:58:06;;;;;;;7.55;5.65;;;;;;;12.06;35.93;100430.06;5039727;28;20418;-83
2022/03/12 07:00:33;;;;;;;9.52;6.63;;;;;;;12.23;35.83;100426.50;5037037;28;20054;-84
2022/03/12 07:03:03;;;;;;;7.03;5.82;;;;;;;12.45;35.90;100428.31;5041046;28;20069;-85
2022/03/12 07:05:31;;;;;;;10.65;5.50;;;;;;;11.94;37.18;100429.88;5040680;28;20050;-83
2022/03/12 07:07:58;;;;;;;9.15;6.05;;;;;;;11.72;37.65;100431.59;5031148;28;20057;-82
2022/03/12 07:10:28;;;;;;;8.48;6.47;;;;;;;11.60;38.11;100427.78;5035279;28;20060;-83
2022/03/12 07:12:55;;;;;;;;;;;;;;;11.16;39.59;100431.19;5039493;28;20060;-83
2022/03/12 07:15:23;;;;;;;16.73;6.85;;;;;;;11.16;39.51;100436.75;5021524;28;19921;-82
2022/03/12 07:17:50;;;;;;;7.88;6.45;;;;;;;11.16;39.86;100433.97;5021504;28;20050;-83
2022/03/12 07:20:18;;;;;;;7.93;5.60;;;;;;;11.09;40.00;100436.41;5034114;28;20053;-82
2022/03/12 07:22:47;;;;;;;7.63;5.78;;;;;;;11.08;40.24;100431.94;5035286;28;20053;-83
2022/03/12 07:25:16;;;;;;;7.05;5.75;;;;;;;11.36;40.16;100435.41;5036891;28;20050;-83
2022/03/12 07:27:45;;;;;;;8.93;6.15;;;;;;;11.49;39.91;100444.81;5023734;28;20050;-83
2022/03/12 07:30:15;;;;;;;7.43;5.82;;;;;;;11.48;39.65;100440.34;5032857;28;20050;-83
2022/03/12 07:32:43;;;;;;;7.93;5.85;;;;;;;11.17;40.41;100443.16;5040057;28;20060;-83
2022/03/12 07:35:12;;;;;;;9.02;5.78;;;;;;;11.05;40.44;100445.72;5038475;28;20050;-83
2022/03/12 07:37:40;;;;;;;7.38;5.72;;;;;;;11.07;40.32;100449.84;5021346;28;20065;-83
2022/03/12 07:40:09;;;;;;;7.93;5.78;;;;;;;12.26;38.44;100450.97;5027296;28;20065;-83
2022/03/12 07:42:36;;;;;;;9.07;5.78;;;;;;;13.65;35.39;100455.59;5019554;28;20605;-83
2022/03/12 07:45:07;;;;;;;8.27;5.97;;;;;;;14.91;33.22;100447.34;5031957;28;20045;-83
2022/03/12 07:47:34;;;;;;;7.82;5.75;;;;;;;15.63;31.76;100447.06;5039707;28;20410;-83
2022/03/12 07:50:01;;;;;;;7.25;5.53;;;;;;;15.74;31.52;100445.44;5039899;28;20061;-82
2022/03/12 07:52:29;;;;;;;6.57;5.38;;;;;;;16.12;31.04;100454.69;5039460;28;20054;-82
2022/03/12 07:54:56;;;;;;;8.15;5.90;;;;;;;16.36;30.54;100451.88;5038144;28;20058;-82
2022/03/12 07:57:28;;;;;;;7.93;6.18;;;;;;;16.30;31.23;100441.22;5038750;28;20513;-83
2022/03/12 07:59:55;;;;;;;6.88;5.38;;;;;;;16.28;30.83;100446.38;5031770;28;20052;-83
2022/03/12 08:02:24;;;;;;;6.35;5.07;;;;;;;16.10;30.91;100457.03;5040559;28;20056;-82
2022/03/12 08:04:51;;;;;;;6.17;5.53;;;;;;;15.51;32.07;100452.66;5040069;28;20046;-82
2022/03/12 08:07:19;;;;;;;8.77;6.60;;;;;;;15.77;31.76;100464.44;5038887;28;20782;-83
2022/03/12 08:09:47;;;;;;;7.13;6.00;;;;;;;15.75;31.50;100457.53;5040276;28;20049;-83
2022/03/12 08:12:15;;;;;;;6.15;5.20;;;;;;;16.58;30.48;100467.38;5038516;28;20053;-84
2022/03/12 08:14:44;;;;;;;7.63;5.53;;;;;;;17.07;29.96;100457.16;5039199;28;20049;-83
2022/03/12 08:17:12;;;;;;;7.63;5.60;;;;;;;17.82;29.13;100456.34;5036211;28;20056;-83
2022/03/12 08:19:40;;;;;;;6.18;5.28;;;;;;;18.38;28.10;100458.94;5038788;28;20042;-82
2022/03/12 08:22:08;;;;;;;6.32;5.72;;;;;;;18.94;27.32;100457.75;5032513;28;20055;-82
2022/03/12 08:24:35;;;;;;;6.97;5.65;;;;;;;19.46;26.76;100464.00;5040002;28;20129;-82
2022/03/12 08:27:03;;;;;;;6.95;5.53;;;;;;;20.11;25.58;100445.34;5038386;28;20068;-83
2022/03/12 08:29:33;;;;;;;7.22;5.47;;;;;;;21.10;24.67;100450.75;5036966;28;20045;-83
2022/03/12 08:32:00;;;;;;;6.53;5.35;;;;;;;21.64;24.16;100452.16;5038509;28;20057;-82
2022/03/12 08:34:28;;;;;;;6.15;5.32;;;;;;;22.76;22.49;100447.28;5039962;28;20058;-83
2022/03/12 08:36:56;;;;;;;6.50;5.80;;;;;;;23.74;21.65;100458.53;5039947;28;20049;-83
2022/03/12 08:39:24;;;;;;;6.85;5.60;;;;;;;23.02;22.21;100461.22;5039359;28;20052;-83
2022/03/12 08:41:51;;;;;;;7.43;5.50;;;;;;;23.08;21.99;100464.50;5037974;28;20053;-83
2022/03/12 08:44:19;;;;;;;7.10;5.85;;;;;;;23.57;21.36;100462.19;5036692;28;20057;-83
2022/03/12 08:46:46;;;;;;;6.03;5.13;;;;;;;23.07;22.34;100474.22;5036797;28;20049;-80
2022/03/12 08:49:14;;;;;;;6.47;5.25;;;;;;;23.88;21.54;100467.13;5037545;28;20552;-81
2022/03/12 08:51:42;;;;;;;6.32;5.22;;;;;;;23.99;21.72;100472.81;5031909;28;20045;-82
2022/03/12 08:54:11;;;;;;;5.95;5.30;;;;;;;25.12;21.02;100464.41;5018411;28;20064;-83
2022/03/12 08:56:38;;;;;;;7.10;5.57;;;;;;;25.70;20.04;100469.78;5032878;28;20058;-83
2022/03/12 08:59:07;;;;;;;5.65;5.13;;;;;;;26.71;19.26;100467.69;5030313;28;20505;-82
2022/03/12 09:01:35;;;;;;;7.03;5.55;;;;;;;27.29;18.81;100472.72;5029402;28;20056;-82
2022/03/12 09:04:03;;;;;;;5.40;4.90;;;;;;;28.25;17.88;100489.66;5039276;28;20053;-82
2022/03/12 09:06:32;;;;;;;10.30;5.53;;;;;;;27.66;18.84;100482.41;5037665;28;20060;-82
2022/03/12 09:08:59;;;;;;;6.10;5.50;;;;;;;27.24;18.83;100484.66;5024085;28;20053;-82
2022/03/12 09:11:28;;;;;;;7.43;5.10;;;;;;;27.10;18.86;100483.53;5023640;28;20045;-82
2022/03/12 09:13:56;;;;;;;6.60;5.32;;;;;;;26.78;19.20;100481.09;5036803;28;20049;-82
2022/03/12 09:16:23;;;;;;;7.65;5.25;;;;;;;27.13;19.04;100481.88;5019220;28;20054;-82
2022/03/12 09:18:52;;;;;;;5.20;4.70;;;;;;;27.31;19.05;100482.47;5027635;28;20080;-82
2022/03/12 09:21:19;;;;;;;5.45;4.70;;;;;;;27.98;18.62;100481.13;5032989;28;20054;-81
2022/03/12 09:23:47;;;;;;;7.07;5.43;;;;;;;27.59;18.69;100483.31;5038760;28;20057;-81
2022/03/12 09:26:14;;;;;;;5.50;4.80;;;;;;;27.85;18.12;100484.56;5036036;28;20049;-81
2022/03/12 09:28:43;;;;;;;5.63;5.05;;;;;;;27.38;18.39;100484.44;5030580;28;20060;-81
2022/03/12 09:31:11;;;;;;;6.50;5.07;;;;;;;27.60;18.28;100484.13;5037223;28;20060;-81
2022/03/12 09:33:38;;;;;;;5.55;5.05;;;;;;;27.02;18.60;100496.31;5033480;28;20064;-81
2022/03/12 09:36:06;;;;;;;6.47;5.45;;;;;;;27.21;18.17;100496.91;5036768;28;20418;-81
2022/03/12 09:38:34;;;;;;;5.75;5.15;;;;;;;27.32;18.40;100494.75;5025029;28;20052;-82
2022/03/12 09:41:01;;;;;;;5.78;5.18;;;;;;;27.61;18.22;100515.16;5036798;28;20049;-82
2022/03/12 09:43:29;;;;;;;5.75;5.15;;;;;;;28.00;17.64;100510.94;5037522;28;20444;-81
2022/03/12 09:45:59;;;;;;;5.95;5.45;;;;;;;27.80;18.19;100501.41;5039030;28;20045;-81
2022/03/12 09:48:27;;;;;;;5.97;5.38;;;;;;;28.46;17.28;100508.50;5025105;28;20057;-81
2022/03/12 09:50:55;;;;;;;6.55;5.53;;;;;;;29.12;16.85;100501.94;5038247;28;20075;-80
2022/03/12 09:53:23;;;;;;;6.38;5.78;;;;;;;29.89;16.00;100499.81;5032683;28;20045;-81
2022/03/12 09:55:50;;;;;;;6.20;5.60;;;;;;;30.77;15.69;100497.16;5021956;28;20495;-82
2022/03/12 09:58:18;;;;;;;6.60;5.72;;;;;;;31.12;14.79;100509.72;5034875;28;20060;-82
2022/03/12 10:00:46;;;;;;;7.15;5.75;;;;;;;30.01;15.77;100495.44;5038587;28;20390;-83
2022/03/12 10:03:14;;;;;;;6.50;5.90;;;;;;;29.42;16.67;100508.69;5038109;28;20413;-82
2022/03/12 10:05:42;;;;;;;6.07;5.47;;;;;;;29.64;16.22;100513.94;5018807;28;20509;-81
2022/03/12 10:08:09;;;;;;;7.20;5.47;;;;;;;29.90;16.41;100515.81;5030422;28;20056;-82
2022/03/12 10:10:36;;;;;;;5.43;4.93;;;;;;;30.25;16.46;100500.97;5029234;28;20053;-82
2022/03/12 10:13:04;;;;;;;6.72;6.03;;;;;;;30.53;16.20;100499.44;5038192;28;20052;-82
2022/03/12 10:15:31;;;;;;;5.78;5.25;;;;;;;30.66;16.05;100511.00;5038051;28;20493;-82
2022/03/12 10:17:59;;;;;;;6.07;5.45;;;;;;;29.72;16.38;100512.53;5037811;28;20049;-82
2022/03/12 10:20:28;;;;;;;6.00;4.88;;;;;;;29.05;17.10;100515.59;5018065;28;20054;-82
2022/03/12 10:22:55;;;;;;;;;;;;;;;29.35;17.05;100526.03;5031514;28;20057;-84
2022/03/12 10:25:23;;;;;;;5.97;5.18;;;;;;;29.32;17.41;100524.06;5032583;28;19921;-82
2022/03/12 10:27:51;;;;;;;5.73;5.13;;;;;;;28.62;17.58;100523.00;5019182;28;20049;-82
2022/03/12 10:30:19;;;;;;;5.45;4.95;;;;;;;28.59;18.09;100514.44;5027494;28;20483;-85
2022/03/12 10:32:48;;;;;;;6.95;5.68;;;;;;;29.04;17.71;100517.66;5034942;28;20053;-84
2022/03/12 10:35:15;;;;;;;;;;;;;;;26.97;19.21;100518.84;5038543;28;20053;-84
2022/03/12 10:37:44;;;;;;;6.00;5.43;;;;;;;27.13;18.96;100519.03;5029067;28;19920;-83
2022/03/12 10:40:15;;;;;;;5.65;5.05;;;;;;;26.76;19.75;100506.44;5040643;28;20053;-83
2022/03/12 10:42:47;;;;;;;6.20;4.82;;;;;;;26.57;19.60;100510.72;5039803;28;20557;-84
2022/03/12 10:45:16;;;;;;;5.90;4.95;;;;;;;26.85;19.59;100508.78;5039795;28;20053;-84
2022/03/12 10:47:46;;;;;;;5.47;4.50;;;;;;;27.71;18.78;100508.47;5041388;28;20049;-84
2022/03/12 10:50:17;;;;;;;6.05;4.63;;;;;;;28.93;17.46;100499.84;5040645;28;20050;-84
2022/03/12 10:52:49;;;;;;;5.15;4.60;;;;;;;29.18;17.05;100512.91;5040280;28;20045;-83
2022/03/12 10:55:19;;;;;;;5.40;4.90;;;;;;;28.53;18.04;100514.94;5041179;28;20064;-83
2022/03/12 10:58:02;;;;;;;5.13;4.63;;;;;;;28.86;17.47;100509.41;5042076;28;20049;-83
2022/03/12 11:00:32;;;;;;;5.07;4.35;;;;;;;28.70;18.31;100504.38;5032739;28;20049;-84
2022/03/12 11:03:01;;;;;;;5.18;4.63;;;;;;;28.08;18.49;100503.03;5033516;28;20053;-84
2022/03/12 11:05:34;;;;;;;5.70;5.20;;;;;;;28.08;18.14;100500.19;5025824;28;20049;-85
2022/03/12 11:08:18;;;;;;;6.13;5.53;;;;;;;27.45;18.96;100503.56;5032259;28;20056;-84
2022/03/12 11:10:50;;;;;;;5.22;4.72;;;;;;;28.45;18.12;100499.09;5031145;28;20068;-86
2022/03/12 11:13:41;;;;;;;5.15;4.47;;;;;;;27.98;18.46;100495.44;5034578;28;20042;-85
2022/03/12 11:16:20;;;;;;;6.88;4.65;;;;;;;27.85;18.95;100496.00;5037278;28;20057;-84
2022/03/12 11:19:02;;;;;;;5.97;5.05;;;;;;;27.64;19.05;100513.50;5035781;28;20053;-84
2022/03/12 11:21:37;;;;;;;6.07;4.95;;;;;;;27.90;18.69;100503.31;5022186;28;20050;-84
2022/03/12 11:24:09;;;;;;;5.57;4.65;;;;;;;27.04;19.33;100501.59;5035251;28;20057;-85
2022/03/12 11:26:56;;;;;;;11.35;5.78;;;;;;;28.05;18.88;100504.69;5037599;28;20056;-86
2022/03/12 11:29:26;;;;;;;5.75;5.22;;;;;;;28.42;18.50;100502.84;5029900;28;20050;-86
2022/03/12 11:31:55;;;;;;;5.05;4.60;;;;;;;29.47;17.29;100493.00;5022601;28;20054;-87
2022/03/12 11:34:24;;;;;;;6.70;4.85;;;;;;;28.86;18.00;100488.53;5021429;28;20383;-86
2022/03/12 11:37:05;;;;;;;5.57;4.95;;;;;;;29.01;17.34;100484.13;5020587;28;20170;-87